Metar Aviation Weather Data LTBA Atatürk International

19°C Temp
16°C Dewpoint
83% Humidity
Temperature
23 KM/H
14 MPH
12 KTS
10°
Due North

Wind Speed
Partly Cloudy
Conditions
Pressure 1018 (hPa) - 30.06 (in)
Visibility 6.2 (mi) - 10.0 (km)

Current Conditions
LTBA
Atatürk International 6 km (3.2 mi)
Metar :LTBA 272020Z 01012KT 9999 FEW013 SCT030 BKN100 19/16 Q1018 NOSIG RMK RWY17L 02009KT RWY05 35011KT RWY23 02011KT
Sun 27th May 23:20 pm

Airport
  Metar Aviation API Data Provided by https://www.checkwx.com/ PHP scripts by weather34.com ©2018